createdAt,value
2022-11-08T00:00:03.915Z,132.500000
2022-11-08T00:01:00.653Z,132.500000
2022-11-08T00:02:00.754Z,135.000000
2022-11-08T00:03:00.699Z,135.000000
2022-11-08T00:04:00.704Z,135.000000
2022-11-08T00:05:04.835Z,147.500000
2022-11-08T00:06:00.746Z,147.500000
2022-11-08T00:07:00.697Z,155.000000
2022-11-08T00:08:00.756Z,155.000000
2022-11-08T00:09:00.678Z,147.500000
2022-11-08T00:10:05.916Z,147.500000
2022-11-08T00:11:00.692Z,147.500000
2022-11-08T00:12:00.774Z,130.000000
2022-11-08T00:13:00.743Z,130.000000
2022-11-08T00:14:00.776Z,130.000000
2022-11-08T00:15:03.876Z,150.000000
2022-11-08T00:16:00.787Z,150.000000
2022-11-08T00:17:00.729Z,137.500000
2022-11-08T00:18:00.819Z,137.500000
2022-11-08T00:19:00.800Z,142.500000
2022-11-08T00:20:04.358Z,142.500000
2022-11-08T00:21:00.808Z,142.500000
2022-11-08T00:22:00.861Z,140.000000
2022-11-08T00:23:00.795Z,140.000000
2022-11-08T00:24:00.913Z,140.000000
2022-11-08T00:25:03.844Z,147.500000
2022-11-08T00:26:00.886Z,147.500000
2022-11-08T00:27:00.816Z,145.000000
2022-11-08T00:28:00.901Z,145.000000
2022-11-08T00:29:00.828Z,145.000000
2022-11-08T00:30:05.716Z,130.000000
2022-11-08T00:31:00.835Z,130.000000
2022-11-08T00:32:00.910Z,130.000000
2022-11-08T00:33:00.877Z,130.000000
2022-11-08T00:34:00.926Z,130.000000
2022-11-08T00:35:04.167Z,135.000000
2022-11-08T00:36:00.985Z,135.000000
2022-11-08T00:37:00.898Z,135.000000
2022-11-08T00:38:00.959Z,135.000000
2022-11-08T00:39:00.909Z,142.500000
2022-11-08T00:40:04.412Z,142.500000
2022-11-08T00:41:00.910Z,142.500000
2022-11-08T00:42:01.048Z,125.000000
2022-11-08T00:43:00.931Z,125.000000
2022-11-08T00:44:01.002Z,127.500000
2022-11-08T00:45:03.979Z,127.500000
2022-11-08T00:46:01.027Z,127.500000
2022-11-08T00:47:00.972Z,132.500000
2022-11-08T00:48:01.091Z,132.500000
2022-11-08T00:49:00.973Z,132.500000
2022-11-08T00:50:05.947Z,135.000000
2022-11-08T00:51:01.002Z,135.000000
2022-11-08T00:52:01.077Z,132.500000
2022-11-08T00:53:01.027Z,132.500000
2022-11-08T00:54:01.119Z,132.500000
2022-11-08T00:55:04.614Z,125.000000
2022-11-08T00:56:01.132Z,125.000000
2022-11-08T00:57:01.063Z,125.000000
2022-11-08T00:58:01.193Z,125.000000
2022-11-08T00:59:01.066Z,125.000000
2022-11-08T01:00:05.581Z,132.500000
2022-11-08T01:01:01.168Z,132.500000
2022-11-08T01:02:01.365Z,132.500000
2022-11-08T01:03:01.105Z,160.000000
2022-11-08T01:04:01.184Z,160.000000
2022-11-08T01:05:04.113Z,145.000000
2022-11-08T01:06:01.212Z,145.000000
2022-11-08T01:07:01.130Z,145.000000
2022-11-08T01:08:01.207Z,132.500000
2022-11-08T01:09:01.155Z,132.500000
2022-11-08T01:10:05.669Z,137.500000
2022-11-08T01:11:01.182Z,137.500000
2022-11-08T01:12:01.251Z,137.500000
2022-11-08T01:13:01.191Z,132.500000
2022-11-08T01:14:01.260Z,132.500000
2022-11-08T01:15:05.508Z,135.000000
2022-11-08T01:16:00.318Z,135.000000
2022-11-08T01:17:00.209Z,135.000000
2022-11-08T01:18:00.308Z,145.000000
2022-11-08T01:19:00.223Z,145.000000
2022-11-08T01:20:03.708Z,145.000000
2022-11-08T01:21:00.251Z,142.500000
2022-11-08T01:22:00.369Z,142.500000
2022-11-08T01:23:00.253Z,137.500000
2022-11-08T01:24:00.348Z,137.500000
2022-11-08T01:25:03.100Z,132.500000
2022-11-08T01:26:00.336Z,132.500000
2022-11-08T01:27:00.322Z,130.000000
2022-11-08T01:28:00.386Z,130.000000
2022-11-08T01:29:00.294Z,130.000000
2022-11-08T01:30:03.834Z,137.500000
2022-11-08T01:31:00.307Z,137.500000
2022-11-08T01:32:00.393Z,137.500000
2022-11-08T01:33:00.360Z,135.000000
2022-11-08T01:34:00.435Z,135.000000
2022-11-08T01:35:03.702Z,140.000000
2022-11-08T01:36:00.419Z,140.000000
2022-11-08T01:37:00.334Z,140.000000
2022-11-08T01:38:00.405Z,150.000000
2022-11-08T01:39:00.372Z,150.000000
2022-11-08T01:40:03.827Z,150.000000
2022-11-08T01:41:00.363Z,150.000000
2022-11-08T01:42:00.462Z,150.000000
2022-11-08T01:43:00.428Z,142.500000
2022-11-08T01:44:00.453Z,142.500000
2022-11-08T01:45:05.162Z,140.000000
2022-11-08T01:46:00.484Z,140.000000
2022-11-08T01:47:00.409Z,140.000000
2022-11-08T01:48:00.497Z,147.500000
2022-11-08T01:49:00.421Z,147.500000
2022-11-08T01:50:03.521Z,147.500000
2022-11-08T01:51:00.488Z,150.000000
2022-11-08T01:52:00.519Z,150.000000
2022-11-08T01:53:00.459Z,150.000000
2022-11-08T01:54:00.538Z,160.000000
2022-11-08T01:55:04.677Z,160.000000
2022-11-08T01:56:00.522Z,137.500000
2022-11-08T01:57:00.514Z,137.500000
2022-11-08T01:58:00.577Z,152.500000
2022-11-08T01:59:00.534Z,152.500000
2022-11-08T02:00:03.905Z,152.500000
2022-11-08T02:01:00.577Z,142.500000
2022-11-08T02:02:00.727Z,142.500000
2022-11-08T02:03:00.604Z,145.000000
2022-11-08T02:04:00.620Z,145.000000
2022-11-08T02:05:04.822Z,145.000000
2022-11-08T02:06:00.663Z,160.000000
2022-11-08T02:07:00.567Z,160.000000
2022-11-08T02:08:00.645Z,137.500000
2022-11-08T02:09:00.637Z,137.500000
2022-11-08T02:10:03.865Z,137.500000
2022-11-08T02:11:00.601Z,165.000000
2022-11-08T02:12:00.696Z,165.000000
2022-11-08T02:13:04.578Z,165.000000
2022-11-08T02:14:00.686Z,140.000000
2022-11-08T02:15:05.040Z,140.000000
2022-11-08T02:16:00.704Z,132.500000
2022-11-08T02:17:00.640Z,132.500000
2022-11-08T02:18:00.745Z,155.000000
2022-11-08T02:19:00.658Z,155.000000
2022-11-08T02:20:03.953Z,150.000000
2022-11-08T02:21:00.702Z,150.000000
2022-11-08T02:22:00.759Z,150.000000
2022-11-08T02:23:00.689Z,152.500000
2022-11-08T02:24:00.790Z,152.500000
2022-11-08T02:25:04.912Z,152.500000
2022-11-08T02:26:00.789Z,150.000000
2022-11-08T02:27:00.745Z,150.000000
2022-11-08T02:28:00.787Z,152.500000
2022-11-08T02:29:00.737Z,152.500000
2022-11-08T02:30:03.900Z,162.500000
2022-11-08T02:31:00.778Z,162.500000
2022-11-08T02:32:00.819Z,162.500000
2022-11-08T02:33:00.790Z,142.500000
2022-11-08T02:34:00.839Z,142.500000
2022-11-08T02:35:04.957Z,142.500000
2022-11-08T02:36:00.855Z,145.000000
2022-11-08T02:37:00.790Z,145.000000
2022-11-08T02:38:00.852Z,145.000000
2022-11-08T02:39:00.839Z,145.000000
2022-11-08T02:40:05.915Z,145.000000
2022-11-08T02:41:00.825Z,147.500000
2022-11-08T02:42:00.905Z,147.500000
2022-11-08T02:43:00.840Z,147.500000
2022-11-08T02:44:00.925Z,142.500000
2022-11-08T02:45:04.017Z,142.500000
2022-11-08T02:46:00.938Z,142.500000
2022-11-08T02:47:00.895Z,142.500000
2022-11-08T02:48:00.971Z,142.500000
2022-11-08T02:49:00.879Z,137.500000
2022-11-08T02:50:05.362Z,137.500000
2022-11-08T02:51:00.908Z,145.000000
2022-11-08T02:52:00.979Z,145.000000
2022-11-08T02:53:00.913Z,150.000000
2022-11-08T02:54:01.003Z,150.000000
2022-11-08T02:55:05.429Z,150.000000
2022-11-08T02:56:01.041Z,140.000000
2022-11-08T02:57:00.951Z,140.000000
2022-11-08T02:58:01.030Z,140.000000
2022-11-08T02:59:00.958Z,135.000000
2022-11-08T03:00:05.479Z,135.000000
2022-11-08T03:01:01.168Z,135.000000
2022-11-08T03:02:01.260Z,135.000000
2022-11-08T03:03:01.037Z,135.000000
2022-11-08T03:04:01.088Z,135.000000
2022-11-08T03:05:03.918Z,135.000000
2022-11-08T03:06:01.115Z,135.000000
2022-11-08T03:07:01.047Z,137.500000
2022-11-08T03:08:01.138Z,137.500000
2022-11-08T03:09:01.070Z,135.000000
2022-11-08T03:10:05.716Z,135.000000
2022-11-08T03:11:01.077Z,135.000000
2022-11-08T03:12:01.183Z,137.500000
2022-11-08T03:13:01.079Z,137.500000
2022-11-08T03:14:01.193Z,135.000000
2022-11-08T03:15:04.348Z,135.000000
2022-11-08T03:16:01.161Z,140.000000
2022-11-08T03:17:01.112Z,140.000000
2022-11-08T03:18:01.245Z,140.000000
2022-11-08T03:19:01.162Z,152.500000
2022-11-08T03:20:05.742Z,152.500000
2022-11-08T03:21:01.168Z,152.500000
2022-11-08T03:22:01.242Z,142.500000
2022-11-08T03:23:01.199Z,142.500000
2022-11-08T03:24:01.252Z,147.500000
2022-11-08T03:25:05.410Z,147.500000
2022-11-08T03:26:00.301Z,142.500000
2022-11-08T03:27:00.214Z,142.500000
2022-11-08T03:28:00.280Z,142.500000
2022-11-08T03:29:00.220Z,135.000000
2022-11-08T03:30:05.450Z,135.000000
2022-11-08T03:31:00.251Z,135.000000
2022-11-08T03:32:00.322Z,140.000000
2022-11-08T03:33:00.262Z,140.000000
2022-11-08T03:34:00.380Z,140.000000
2022-11-08T03:35:06.920Z,140.000000
2022-11-08T03:36:00.370Z,140.000000
2022-11-08T03:37:00.292Z,132.500000
2022-11-08T03:38:00.423Z,132.500000
2022-11-08T03:39:00.313Z,130.000000
2022-11-08T03:40:03.569Z,130.000000
2022-11-08T03:41:00.339Z,130.000000
2022-11-08T03:42:00.423Z,135.000000
2022-11-08T03:43:00.347Z,135.000000
2022-11-08T03:44:00.445Z,142.500000
2022-11-08T03:45:04.603Z,142.500000
2022-11-08T03:46:00.428Z,142.500000
2022-11-08T03:47:00.369Z,135.000000
2022-11-08T03:48:00.473Z,135.000000
2022-11-08T03:49:00.371Z,132.500000
2022-11-08T03:50:05.061Z,132.500000
2022-11-08T03:51:00.400Z,132.500000
2022-11-08T03:52:00.483Z,140.000000
2022-11-08T03:53:00.413Z,140.000000
2022-11-08T03:54:00.502Z,145.000000
2022-11-08T03:55:04.611Z,145.000000
2022-11-08T03:56:00.524Z,145.000000
2022-11-08T03:57:00.428Z,135.000000
2022-11-08T03:58:00.508Z,135.000000
2022-11-08T03:59:00.440Z,137.500000
2022-11-08T04:00:07.384Z,137.500000
2022-11-08T04:01:00.536Z,137.500000
2022-11-08T04:02:00.722Z,142.500000
2022-11-08T04:03:00.487Z,142.500000
2022-11-08T04:04:00.588Z,142.500000
2022-11-08T04:05:03.566Z,132.500000
2022-11-08T04:06:00.630Z,132.500000
2022-11-08T04:07:00.509Z,132.500000
2022-11-08T04:08:00.628Z,140.000000
2022-11-08T04:09:00.536Z,140.000000
2022-11-08T04:10:05.082Z,140.000000
2022-11-08T04:11:00.562Z,140.000000
2022-11-08T04:12:00.644Z,135.000000
2022-11-08T04:13:00.568Z,135.000000
2022-11-08T04:14:00.710Z,135.000000
2022-11-08T04:15:03.454Z,150.000000
2022-11-08T04:16:02.361Z,150.000000
2022-11-08T04:17:00.595Z,150.000000
2022-11-08T04:18:00.706Z,135.000000
2022-11-08T04:19:00.622Z,135.000000
2022-11-08T04:20:04.218Z,135.000000
2022-11-08T04:21:00.637Z,135.000000
2022-11-08T04:22:00.767Z,142.500000
2022-11-08T04:23:00.637Z,142.500000
2022-11-08T04:24:00.718Z,142.500000
2022-11-08T04:25:03.660Z,145.000000
2022-11-08T04:26:00.769Z,145.000000
2022-11-08T04:27:00.677Z,145.000000
2022-11-08T04:28:00.750Z,150.000000
2022-11-08T04:29:00.691Z,150.000000
2022-11-08T04:30:05.643Z,150.000000
2022-11-08T04:31:00.716Z,150.000000
2022-11-08T04:32:00.832Z,150.000000
2022-11-08T04:33:00.720Z,145.000000
2022-11-08T04:34:00.785Z,145.000000
2022-11-08T04:35:05.614Z,137.500000
2022-11-08T04:36:00.821Z,137.500000
2022-11-08T04:37:00.751Z,137.500000
2022-11-08T04:38:02.395Z,132.500000
2022-11-08T04:39:00.776Z,132.500000
2022-11-08T04:40:07.757Z,135.000000
2022-11-08T04:41:00.778Z,135.000000
2022-11-08T04:42:02.350Z,135.000000
2022-11-08T04:43:00.785Z,122.500000
2022-11-08T04:44:00.901Z,122.500000
2022-11-08T04:45:05.113Z,130.000000
2022-11-08T04:46:00.873Z,130.000000
2022-11-08T04:47:00.819Z,130.000000
2022-11-08T04:48:00.897Z,132.500000
2022-11-08T04:49:00.834Z,132.500000
2022-11-08T04:50:05.338Z,132.500000
2022-11-08T04:51:00.855Z,145.000000
2022-11-08T04:52:00.930Z,145.000000
2022-11-08T04:53:00.853Z,127.500000
2022-11-08T04:54:00.977Z,127.500000
2022-11-08T04:55:03.881Z,127.500000
2022-11-08T04:56:00.965Z,142.500000
2022-11-08T04:57:00.886Z,142.500000
2022-11-08T04:58:00.953Z,150.000000
2022-11-08T04:59:00.893Z,150.000000
2022-11-08T05:00:05.487Z,132.500000
2022-11-08T05:01:01.029Z,132.500000
2022-11-08T05:02:01.541Z,132.500000
2022-11-08T05:03:00.948Z,140.000000
2022-11-08T05:04:01.036Z,140.000000
2022-11-08T05:05:03.895Z,140.000000
2022-11-08T05:06:01.046Z,130.000000
2022-11-08T05:07:00.976Z,130.000000
2022-11-08T05:08:01.052Z,130.000000
2022-11-08T05:09:01.223Z,130.000000
2022-11-08T05:10:05.605Z,130.000000
2022-11-08T05:11:00.982Z,125.000000
2022-11-08T05:12:01.089Z,125.000000
2022-11-08T05:13:01.012Z,137.500000
2022-11-08T05:14:02.387Z,137.500000
2022-11-08T05:15:04.042Z,137.500000
2022-11-08T05:16:01.094Z,135.000000
2022-11-08T05:17:01.037Z,135.000000
2022-11-08T05:18:01.124Z,130.000000
2022-11-08T05:19:01.055Z,130.000000
2022-11-08T05:20:05.900Z,132.500000
2022-11-08T05:21:01.138Z,132.500000
2022-11-08T05:22:01.275Z,132.500000
2022-11-08T05:23:01.056Z,130.000000
2022-11-08T05:24:01.149Z,130.000000
2022-11-08T05:25:05.730Z,120.000000
2022-11-08T05:26:01.360Z,120.000000
2022-11-08T05:27:01.119Z,120.000000
2022-11-08T05:28:02.359Z,140.000000
2022-11-08T05:29:01.113Z,140.000000
2022-11-08T05:30:04.654Z,142.500000
2022-11-08T05:31:01.133Z,142.500000
2022-11-08T05:32:01.414Z,142.500000
2022-11-08T05:33:01.183Z,137.500000
2022-11-08T05:34:01.229Z,137.500000
2022-11-08T05:35:05.373Z,137.500000
2022-11-08T05:36:05.692Z,135.000000
2022-11-08T05:37:01.176Z,135.000000
2022-11-08T05:38:02.379Z,130.000000
2022-11-08T05:39:01.199Z,130.000000
2022-11-08T05:40:03.349Z,130.000000
2022-11-08T05:41:00.210Z,130.000000
2022-11-08T05:42:00.334Z,130.000000
2022-11-08T05:43:00.213Z,135.000000
2022-11-08T05:44:00.308Z,135.000000
2022-11-08T05:45:09.112Z,135.000000
2022-11-08T05:46:00.319Z,130.000000
2022-11-08T05:47:00.252Z,130.000000
2022-11-08T05:48:00.356Z,130.000000
2022-11-08T05:49:00.270Z,130.000000
2022-11-08T05:50:04.801Z,130.000000
2022-11-08T05:51:00.285Z,132.500000
2022-11-08T05:52:00.369Z,132.500000
2022-11-08T05:53:00.294Z,127.500000
2022-11-08T05:54:00.376Z,127.500000
2022-11-08T05:55:03.460Z,127.500000
2022-11-08T05:56:00.527Z,125.000000
2022-11-08T05:57:00.321Z,125.000000
2022-11-08T05:58:00.420Z,125.000000
2022-11-08T05:59:00.330Z,125.000000
2022-11-08T06:00:04.910Z,125.000000
2022-11-08T06:01:00.371Z,142.500000
2022-11-08T06:02:00.567Z,142.500000
2022-11-08T06:03:00.505Z,130.000000
2022-11-08T06:04:00.450Z,130.000000
2022-11-08T06:05:03.687Z,130.000000
2022-11-08T06:06:00.474Z,140.000000
2022-11-08T06:07:00.412Z,140.000000
2022-11-08T06:08:00.512Z,140.000000
2022-11-08T06:09:00.428Z,135.000000
2022-11-08T06:10:05.302Z,135.000000
2022-11-08T06:11:00.434Z,135.000000
2022-11-08T06:12:00.525Z,135.000000
2022-11-08T06:13:00.443Z,135.000000
2022-11-08T06:14:00.602Z,135.000000
2022-11-08T06:15:04.904Z,135.000000
2022-11-08T06:16:00.553Z,137.500000
2022-11-08T06:17:00.484Z,137.500000
2022-11-08T06:18:00.596Z,137.500000
2022-11-08T06:19:00.494Z,130.000000
2022-11-08T06:20:05.426Z,130.000000
2022-11-08T06:21:00.541Z,125.000000
2022-11-08T06:22:00.591Z,125.000000
2022-11-08T06:23:00.532Z,125.000000
2022-11-08T06:24:00.620Z,135.000000
2022-11-08T06:25:04.122Z,135.000000
2022-11-08T06:26:00.646Z,130.000000
2022-11-08T06:27:00.562Z,130.000000
2022-11-08T06:28:00.661Z,130.000000
2022-11-08T06:29:00.553Z,135.000000
2022-11-08T06:30:05.071Z,135.000000
2022-11-08T06:31:00.595Z,135.000000
2022-11-08T06:32:00.688Z,135.000000
2022-11-08T06:33:00.602Z,135.000000
2022-11-08T06:34:00.690Z,135.000000
2022-11-08T06:35:03.707Z,135.000000
2022-11-08T06:36:00.692Z,130.000000
2022-11-08T06:37:00.635Z,130.000000
2022-11-08T06:38:05.661Z,125.000000
2022-11-08T06:39:00.643Z,125.000000
2022-11-08T06:40:04.100Z,125.000000
2022-11-08T06:41:00.651Z,125.000000
2022-11-08T06:42:02.390Z,125.000000
2022-11-08T06:43:00.664Z,125.000000
2022-11-08T06:44:00.778Z,130.000000
2022-11-08T06:45:03.644Z,130.000000
2022-11-08T06:46:02.565Z,135.000000
2022-11-08T06:47:00.692Z,135.000000
2022-11-08T06:48:00.777Z,132.500000
2022-11-08T06:49:00.716Z,132.500000
2022-11-08T06:50:05.243Z,132.500000
2022-11-08T06:51:00.734Z,132.500000
2022-11-08T06:52:00.792Z,132.500000
2022-11-08T06:53:00.729Z,132.500000
2022-11-08T06:54:02.375Z,142.500000
2022-11-08T06:55:03.659Z,142.500000
2022-11-08T06:56:00.862Z,142.500000
2022-11-08T06:57:00.769Z,140.000000
2022-11-08T06:58:00.844Z,140.000000
2022-11-08T06:59:00.777Z,140.000000
2022-11-08T07:00:07.222Z,140.000000
2022-11-08T07:01:00.794Z,140.000000
2022-11-08T07:02:02.652Z,145.000000
2022-11-08T07:03:00.965Z,145.000000
2022-11-08T07:04:00.851Z,145.000000
2022-11-08T07:05:03.750Z,145.000000
2022-11-08T07:06:02.362Z,145.000000
2022-11-08T07:07:00.818Z,140.000000
2022-11-08T07:08:00.916Z,140.000000
2022-11-08T07:09:00.839Z,140.000000
2022-11-08T07:10:05.454Z,150.000000
2022-11-08T07:11:00.856Z,150.000000
2022-11-08T07:12:00.931Z,140.000000
2022-11-08T07:13:00.857Z,140.000000
2022-11-08T07:14:02.385Z,140.000000
2022-11-08T07:15:06.468Z,145.000000
2022-11-08T07:16:00.964Z,145.000000
2022-11-08T07:17:00.912Z,137.500000
2022-11-08T07:18:01.111Z,137.500000
2022-11-08T07:19:00.923Z,137.500000
2022-11-08T07:20:04.355Z,135.000000
2022-11-08T07:21:00.954Z,135.000000
2022-11-08T07:22:02.364Z,125.000000
2022-11-08T07:23:00.952Z,125.000000
2022-11-08T07:24:01.040Z,125.000000
2022-11-08T07:25:05.130Z,137.500000
2022-11-08T07:26:02.396Z,137.500000
2022-11-08T07:27:00.981Z,137.500000
2022-11-08T07:28:01.060Z,135.000000
2022-11-08T07:29:00.993Z,135.000000
2022-11-08T07:30:04.160Z,135.000000
2022-11-08T07:31:01.003Z,135.000000
2022-11-08T07:32:01.126Z,135.000000
2022-11-08T07:33:01.018Z,137.500000
2022-11-08T07:34:02.407Z,137.500000
2022-11-08T07:35:05.230Z,137.500000
2022-11-08T07:36:01.123Z,137.500000
2022-11-08T07:37:01.041Z,137.500000
2022-11-08T07:38:02.402Z,135.000000
2022-11-08T07:39:06.267Z,135.000000
2022-11-08T07:40:04.175Z,137.500000
2022-11-08T07:41:01.088Z,137.500000
2022-11-08T07:42:01.154Z,137.500000
2022-11-08T07:43:23.039Z,127.500000
2022-11-08T07:44:01.179Z,127.500000
2022-11-08T07:45:07.287Z,145.000000
2022-11-08T07:46:01.180Z,145.000000
2022-11-08T07:47:01.121Z,145.000000
2022-11-08T07:48:03.421Z,145.000000
2022-11-08T07:49:01.130Z,145.000000
2022-11-08T07:50:05.847Z,147.500000
2022-11-08T07:51:01.144Z,147.500000
2022-11-08T07:52:02.378Z,147.500000
2022-11-08T07:53:01.148Z,145.000000
2022-11-08T07:54:03.204Z,145.000000
2022-11-08T07:55:05.386Z,142.500000
2022-11-08T07:56:01.270Z,142.500000
2022-11-08T07:57:01.206Z,135.000000
2022-11-08T07:58:00.257Z,135.000000
2022-11-08T07:59:00.190Z,135.000000
2022-11-08T08:00:07.466Z,145.000000
2022-11-08T08:01:00.224Z,145.000000
2022-11-08T08:02:00.455Z,145.000000
2022-11-08T08:03:00.348Z,150.000000
2022-11-08T08:04:00.676Z,150.000000
2022-11-08T08:05:05.266Z,145.000000
2022-11-08T08:06:02.482Z,145.000000
2022-11-08T08:07:00.265Z,135.000000
2022-11-08T08:08:00.380Z,135.000000
2022-11-08T08:09:00.286Z,135.000000
2022-11-08T08:10:05.122Z,152.500000
2022-11-08T08:11:00.306Z,152.500000
2022-11-08T08:12:00.391Z,152.500000
2022-11-08T08:13:00.317Z,140.000000
2022-11-08T08:14:00.410Z,140.000000
2022-11-08T08:15:04.522Z,135.000000
2022-11-08T08:16:00.404Z,135.000000
2022-11-08T08:17:00.335Z,135.000000
2022-11-08T08:18:00.431Z,145.000000
2022-11-08T08:19:00.356Z,145.000000
2022-11-08T08:20:06.077Z,152.500000
2022-11-08T08:21:00.374Z,152.500000
2022-11-08T08:22:00.461Z,152.500000
2022-11-08T08:23:00.384Z,142.500000
2022-11-08T08:24:00.461Z,142.500000
2022-11-08T08:25:03.538Z,140.000000
2022-11-08T08:26:00.485Z,140.000000
2022-11-08T08:27:00.424Z,140.000000
2022-11-08T08:28:00.488Z,122.500000
2022-11-08T08:29:00.429Z,122.500000
2022-11-08T08:30:04.938Z,122.500000
2022-11-08T08:31:00.443Z,122.500000
2022-11-08T08:32:00.552Z,122.500000
2022-11-08T08:33:26.252Z,145.000000
2022-11-08T08:34:00.542Z,145.000000
2022-11-08T08:35:03.630Z,120.000000
2022-11-08T08:36:00.566Z,120.000000
2022-11-08T08:37:00.489Z,120.000000
2022-11-08T08:38:00.621Z,135.000000
2022-11-08T08:39:00.505Z,135.000000
2022-11-08T08:40:04.916Z,132.500000
2022-11-08T08:41:00.539Z,132.500000
2022-11-08T08:42:00.618Z,132.500000
2022-11-08T08:43:00.543Z,132.500000
2022-11-08T08:44:00.641Z,132.500000
2022-11-08T08:45:03.646Z,132.500000
2022-11-08T08:46:00.641Z,130.000000
2022-11-08T08:47:00.573Z,130.000000
2022-11-08T08:48:00.646Z,127.500000
2022-11-08T08:49:00.591Z,127.500000
2022-11-08T08:50:07.034Z,127.500000
2022-11-08T08:51:00.616Z,122.500000
2022-11-08T08:52:00.694Z,122.500000
2022-11-08T08:53:00.612Z,117.500000
2022-11-08T08:54:00.729Z,117.500000
2022-11-08T08:55:04.817Z,117.500000
2022-11-08T08:56:00.719Z,135.000000
2022-11-08T08:57:00.638Z,135.000000
2022-11-08T08:58:00.717Z,130.000000
2022-11-08T09:02:03.192Z,125.000000
2022-11-08T09:03:00.714Z,130.000000
2022-11-08T09:04:01.513Z,130.000000
2022-11-08T09:05:05.342Z,130.000000
2022-11-08T09:06:02.403Z,130.000000
2022-11-08T09:07:00.792Z,130.000000
2022-11-08T09:08:00.983Z,130.000000
2022-11-08T09:09:00.747Z,130.000000
2022-11-08T09:10:06.351Z,130.000000
2022-11-08T09:11:00.765Z,130.000000
2022-11-08T09:12:00.865Z,130.000000
2022-11-08T09:13:00.785Z,130.000000
2022-11-08T09:14:01.436Z,122.500000
2022-11-08T09:15:04.061Z,122.500000
2022-11-08T09:16:00.876Z,122.500000
2022-11-08T09:17:00.812Z,122.500000
2022-11-08T09:18:01.008Z,140.000000
2022-11-08T09:19:00.832Z,140.000000
2022-11-08T09:20:05.250Z,140.000000
2022-11-08T09:21:00.851Z,135.000000
2022-11-08T09:22:00.973Z,135.000000
2022-11-08T09:23:00.862Z,140.000000
2022-11-08T09:24:02.394Z,140.000000
2022-11-08T09:25:03.817Z,140.000000
2022-11-08T09:26:00.972Z,132.500000
2022-11-08T09:27:00.887Z,132.500000
2022-11-08T09:28:02.385Z,132.500000
2022-11-08T09:29:00.885Z,137.500000
2022-11-08T09:30:07.472Z,137.500000
2022-11-08T09:31:00.912Z,132.500000
2022-11-08T09:32:01.017Z,132.500000
2022-11-08T09:33:02.104Z,132.500000
2022-11-08T09:34:01.076Z,135.000000
2022-11-08T09:36:01.033Z,135.000000
2022-11-08T09:37:00.966Z,135.000000
2022-11-08T09:38:02.417Z,147.500000
2022-11-08T09:39:00.983Z,147.500000
2022-11-08T09:40:05.436Z,147.500000
2022-11-08T09:41:00.979Z,135.000000
2022-11-08T09:42:01.102Z,135.000000
2022-11-08T09:43:00.997Z,135.000000
2022-11-08T09:44:01.115Z,132.500000
2022-11-08T09:45:04.173Z,132.500000
2022-11-08T09:46:01.113Z,140.000000
2022-11-08T09:47:01.046Z,140.000000
2022-11-08T09:48:04.870Z,145.000000
2022-11-08T09:49:01.059Z,145.000000
2022-11-08T09:50:06.338Z,145.000000
2022-11-08T09:51:01.066Z,137.500000
2022-11-08T09:52:01.135Z,137.500000
2022-11-08T09:53:01.076Z,137.500000
2022-11-08T09:54:01.167Z,142.500000
2022-11-08T09:55:05.398Z,142.500000
2022-11-08T09:56:02.429Z,145.000000
2022-11-08T09:57:01.113Z,145.000000
2022-11-08T09:58:01.211Z,150.000000
2022-11-08T09:59:01.116Z,150.000000
2022-11-08T10:00:08.314Z,150.000000
2022-11-08T10:01:01.160Z,130.000000
2022-11-08T10:02:01.309Z,130.000000
2022-11-08T10:03:01.184Z,130.000000
2022-11-08T10:04:01.245Z,140.000000
2022-11-08T10:05:04.178Z,140.000000
2022-11-08T10:06:00.276Z,140.000000
2022-11-08T10:07:02.734Z,162.500000
2022-11-08T10:08:00.285Z,162.500000
2022-11-08T10:09:00.212Z,135.000000
2022-11-08T10:10:04.625Z,135.000000
2022-11-08T10:11:00.229Z,135.000000
2022-11-08T10:12:00.334Z,135.000000
2022-11-08T10:13:00.241Z,135.000000
2022-11-08T10:14:00.460Z,132.500000
2022-11-08T10:15:03.102Z,132.500000
2022-11-08T10:16:00.344Z,132.500000
2022-11-08T10:17:00.271Z,145.000000
2022-11-08T10:18:00.345Z,145.000000
2022-11-08T10:19:00.285Z,140.000000
2022-11-08T10:20:06.609Z,140.000000
2022-11-08T10:21:00.302Z,140.000000
2022-11-08T10:22:00.364Z,135.000000
2022-11-08T10:23:00.309Z,135.000000
2022-11-08T10:24:00.399Z,135.000000
2022-11-08T10:25:03.322Z,147.500000
2022-11-08T10:26:00.422Z,147.500000
2022-11-08T10:27:00.353Z,150.000000
2022-11-08T10:28:00.412Z,150.000000
2022-11-08T10:29:00.340Z,150.000000
2022-11-08T10:30:04.859Z,137.500000
2022-11-08T10:31:00.367Z,137.500000
2022-11-08T10:32:00.461Z,127.500000
2022-11-08T10:33:00.385Z,127.500000
2022-11-08T10:34:00.468Z,130.000000
2022-11-08T10:35:03.294Z,130.000000
2022-11-08T10:36:02.453Z,130.000000
2022-11-08T10:37:00.419Z,150.000000
2022-11-08T10:38:00.637Z,150.000000
2022-11-08T10:39:00.436Z,150.000000
2022-11-08T10:40:04.824Z,135.000000
2022-11-08T10:41:00.446Z,135.000000
2022-11-08T10:42:00.531Z,137.500000
2022-11-08T10:43:02.517Z,137.500000
2022-11-08T10:44:00.546Z,140.000000
2022-11-08T10:45:03.455Z,140.000000
2022-11-08T10:46:00.570Z,140.000000
2022-11-08T10:47:00.479Z,145.000000
2022-11-08T10:48:00.562Z,145.000000
2022-11-08T10:49:00.499Z,145.000000
2022-11-08T10:50:04.957Z,140.000000
2022-11-08T10:51:00.519Z,140.000000
2022-11-08T10:52:00.593Z,140.000000
2022-11-08T10:53:00.523Z,145.000000
2022-11-08T10:54:00.640Z,145.000000
2022-11-08T10:55:05.160Z,135.000000
2022-11-08T10:56:00.634Z,135.000000
2022-11-08T10:57:00.573Z,145.000000
2022-11-08T10:58:00.649Z,145.000000
2022-11-08T10:59:00.576Z,145.000000
2022-11-08T11:00:03.990Z,150.000000
2022-11-08T11:01:00.635Z,150.000000
2022-11-08T11:02:00.858Z,135.000000
2022-11-08T11:03:00.634Z,135.000000
2022-11-08T11:04:00.710Z,135.000000
2022-11-08T11:05:04.853Z,135.000000
2022-11-08T11:06:00.741Z,135.000000
2022-11-08T11:07:00.758Z,137.500000
2022-11-08T11:08:02.260Z,137.500000
2022-11-08T11:09:00.671Z,137.500000